<?xml version="1.0" encoding="UTF-8" standalone="no" ?>
<gpx xmlns="http://www.topografix.com/GPX/1/1" xmlns:xsi="http://www.w3.org/2001/XMLSchema-instance" xsi:schemaLocation="http://www.topografix.com/GPX/1/1 http://www.topografix.com/GPX/1/1/gpx.xsd" version="1.1" creator="VisuGPX - https://www.visugpx.com">
  <metadata>
    <name>83 - L - Lorgues St Jaume</name>
    <desc><![CDATA[83 - L - Lorgues St Jaume-Les Mauniers-barrage Argens-Auriol
12 Km-280 m
22-11-2021]]></desc>
  </metadata>
  <trk>
    <name><![CDATA[St Jaume-Les Mauniers-barrage Argens-Auriol-Pey Cervier-12Km-280m (1)]]></name>
    <extensions>
      <line xmlns="http://www.topografix.com/GPX/gpx_style/0/2">
        <width>4</width>
      </line>
    </extensions>
    <trkseg>
      <trkpt lat="43.48143" lon="6.32843">
        <ele>145</ele>
        <time>2021-04-16T08:45:07.000Z</time>
      </trkpt>
      <trkpt lat="43.48101" lon="6.3279">
        <ele>144</ele>
        <time>2021-04-20T17:52:40.000Z</time>
      </trkpt>
      <trkpt lat="43.48059" lon="6.32738">
        <ele>140</ele>
        <time>2021-04-16T08:45:12.000Z</time>
      </trkpt>
      <trkpt lat="43.48024" lon="6.32738">
        <ele>140</ele>
        <time>2021-04-20T17:52:50.000Z</time>
      </trkpt>
      <trkpt lat="43.47989" lon="6.32738">
        <ele>140</ele>
        <time>2021-04-16T08:45:17.000Z</time>
      </trkpt>
      <trkpt lat="43.47915" lon="6.32746">
        <ele>133</ele>
        <time>2021-04-16T08:45:22.000Z</time>
      </trkpt>
      <trkpt lat="43.47859" lon="6.32714">
        <ele>137</ele>
        <time>2021-04-16T08:45:27.000Z</time>
      </trkpt>
      <trkpt lat="43.47827" lon="6.32668">
        <ele>137</ele>
        <time>2021-04-16T08:45:32.000Z</time>
      </trkpt>
      <trkpt lat="43.47806" lon="6.32623">
        <ele>134</ele>
        <time>2021-04-20T17:53:15.000Z</time>
      </trkpt>
      <trkpt lat="43.47785" lon="6.32579">
        <ele>129</ele>
        <time>2021-04-16T08:45:37.000Z</time>
      </trkpt>
      <trkpt lat="43.4778" lon="6.32525">
        <ele>125</ele>
        <time>2021-04-20T17:53:25.000Z</time>
      </trkpt>
      <trkpt lat="43.47775" lon="6.32471">
        <ele>123</ele>
        <time>2021-04-16T08:45:42.000Z</time>
      </trkpt>
      <trkpt lat="43.47758" lon="6.32403">
        <ele>122</ele>
        <time>2021-04-16T08:45:47.000Z</time>
      </trkpt>
      <trkpt lat="43.47719" lon="6.32321">
        <ele>128</ele>
        <time>2021-04-16T08:45:52.000Z</time>
      </trkpt>
      <trkpt lat="43.47709" lon="6.32283">
        <ele>131</ele>
        <time>2021-04-20T17:53:45.000Z</time>
      </trkpt>
      <trkpt lat="43.477" lon="6.32245">
        <ele>133</ele>
        <time>2021-04-16T08:45:57.000Z</time>
      </trkpt>
      <trkpt lat="43.47668" lon="6.32191">
        <ele>139</ele>
        <time>2021-04-20T17:53:55.000Z</time>
      </trkpt>
      <trkpt lat="43.47637" lon="6.32139">
        <ele>140</ele>
        <time>2021-04-16T08:46:02.000Z</time>
      </trkpt>
      <trkpt lat="43.47617" lon="6.32097">
        <ele>141</ele>
        <time>2021-04-20T17:54:05.000Z</time>
      </trkpt>
      <trkpt lat="43.47597" lon="6.32056">
        <ele>143</ele>
        <time>2021-04-16T08:46:07.000Z</time>
      </trkpt>
      <trkpt lat="43.47581" lon="6.32007">
        <ele>144</ele>
        <time>2021-04-20T17:54:15.000Z</time>
      </trkpt>
      <trkpt lat="43.47566" lon="6.3196">
        <ele>144</ele>
        <time>2021-04-16T08:46:12.000Z</time>
      </trkpt>
      <trkpt lat="43.47538" lon="6.31951">
        <ele>145</ele>
        <time>2021-04-20T17:54:25.000Z</time>
      </trkpt>
      <trkpt lat="43.47511" lon="6.31942">
        <ele>145</ele>
        <time>2021-04-20T17:54:30.000Z</time>
      </trkpt>
      <trkpt lat="43.47485" lon="6.31934">
        <ele>144</ele>
        <time>2021-04-20T17:54:35.000Z</time>
      </trkpt>
      <trkpt lat="43.47459" lon="6.31925">
        <ele>142</ele>
        <time>2021-04-20T17:54:40.000Z</time>
      </trkpt>
      <trkpt lat="43.47409" lon="6.31909">
        <ele>140</ele>
        <time>2021-04-20T17:54:45.000Z</time>
      </trkpt>
      <trkpt lat="43.47365" lon="6.31893">
        <ele>140</ele>
        <time>2021-04-16T08:46:17.000Z</time>
      </trkpt>
      <trkpt lat="43.47368" lon="6.31877">
        <ele>141</ele>
        <time>2021-06-15T09:58:31.000Z</time>
      </trkpt>
      <trkpt lat="43.47379" lon="6.31876">
        <ele>141</ele>
        <time>2021-04-20T17:54:55.000Z</time>
      </trkpt>
      <trkpt lat="43.47392" lon="6.31858">
        <ele>143</ele>
        <time>2021-04-20T17:55:00.000Z</time>
      </trkpt>
      <trkpt lat="43.4742" lon="6.31823">
        <ele>149</ele>
        <time>2021-04-16T08:46:22.000Z</time>
      </trkpt>
      <trkpt lat="43.47411" lon="6.31804">
        <ele>155</ele>
        <time>2021-04-20T17:55:10.000Z</time>
      </trkpt>
      <trkpt lat="43.47385" lon="6.31805">
        <ele>157</ele>
        <time>2021-04-20T17:55:15.000Z</time>
      </trkpt>
      <trkpt lat="43.47352" lon="6.31789">
        <ele>160</ele>
        <time>2021-04-16T08:46:27.000Z</time>
      </trkpt>
      <trkpt lat="43.47358" lon="6.31773">
        <ele>163</ele>
        <time>2021-04-20T17:55:25.000Z</time>
      </trkpt>
      <trkpt lat="43.47365" lon="6.31762">
        <ele>166</ele>
        <time>2021-04-20T17:55:30.000Z</time>
      </trkpt>
      <trkpt lat="43.47377" lon="6.31735">
        <ele>170</ele>
        <time>2021-04-16T08:46:32.000Z</time>
      </trkpt>
      <trkpt lat="43.47381" lon="6.31716">
        <ele>172</ele>
        <time>2021-06-15T09:59:21.000Z</time>
      </trkpt>
      <trkpt lat="43.47377" lon="6.31689">
        <ele>175</ele>
        <time>2021-04-20T17:55:40.000Z</time>
      </trkpt>
      <trkpt lat="43.47371" lon="6.3167">
        <ele>177</ele>
        <time>2021-06-15T09:59:31.000Z</time>
      </trkpt>
      <trkpt lat="43.47376" lon="6.31654">
        <ele>178</ele>
        <time>2021-06-15T09:59:36.000Z</time>
      </trkpt>
      <trkpt lat="43.47378" lon="6.31625">
        <ele>180</ele>
        <time>2021-04-16T08:46:37.000Z</time>
      </trkpt>
      <trkpt lat="43.47376" lon="6.31587">
        <ele>183</ele>
        <time>2021-04-20T17:55:50.000Z</time>
      </trkpt>
      <trkpt lat="43.47381" lon="6.31558">
        <ele>184</ele>
        <time>2021-04-20T17:55:55.000Z</time>
      </trkpt>
      <trkpt lat="43.47384" lon="6.31542">
        <ele>185</ele>
        <time>2021-06-15T09:59:56.000Z</time>
      </trkpt>
      <trkpt lat="43.47363" lon="6.31546">
        <ele>184</ele>
        <time>2021-06-15T10:00:01.000Z</time>
      </trkpt>
      <trkpt lat="43.47385" lon="6.31537">
        <ele>185</ele>
        <time>2021-06-15T10:00:06.000Z</time>
      </trkpt>
      <trkpt lat="43.47388" lon="6.31514">
        <ele>185</ele>
        <time>2021-06-15T10:00:11.000Z</time>
      </trkpt>
      <trkpt lat="43.47394" lon="6.3147">
        <ele>185</ele>
        <time>2021-04-16T08:46:42.000Z</time>
      </trkpt>
      <trkpt lat="43.47399" lon="6.31422">
        <ele>186</ele>
        <time>2021-04-20T17:56:05.000Z</time>
      </trkpt>
      <trkpt lat="43.47402" lon="6.31407">
        <ele>186</ele>
        <time>2021-04-20T17:56:10.000Z</time>
      </trkpt>
      <trkpt lat="43.47394" lon="6.31398">
        <ele>186</ele>
        <time>2021-06-15T10:00:31.000Z</time>
      </trkpt>
      <trkpt lat="43.47387" lon="6.3139">
        <ele>186</ele>
        <time>2021-06-15T10:00:36.000Z</time>
      </trkpt>
      <trkpt lat="43.47381" lon="6.31387">
        <ele>186</ele>
        <time>2021-06-15T10:00:41.000Z</time>
      </trkpt>
      <trkpt lat="43.47373" lon="6.31382">
        <ele>186</ele>
        <time>2021-06-15T10:00:46.000Z</time>
      </trkpt>
      <trkpt lat="43.47369" lon="6.31374">
        <ele>185</ele>
        <time>2021-06-15T10:00:51.000Z</time>
      </trkpt>
      <trkpt lat="43.47366" lon="6.31363">
        <ele>185</ele>
        <time>2021-06-15T10:00:56.000Z</time>
      </trkpt>
      <trkpt lat="43.47359" lon="6.31353">
        <ele>185</ele>
        <time>2021-06-15T10:01:01.000Z</time>
      </trkpt>
      <trkpt lat="43.47356" lon="6.31344">
        <ele>185</ele>
        <time>2021-06-15T10:01:06.000Z</time>
      </trkpt>
      <trkpt lat="43.47356" lon="6.31333">
        <ele>185</ele>
        <time>2021-06-15T10:01:11.000Z</time>
      </trkpt>
      <trkpt lat="43.47354" lon="6.31324">
        <ele>185</ele>
        <time>2021-06-15T10:01:16.000Z</time>
      </trkpt>
      <trkpt lat="43.47347" lon="6.3131">
        <ele>184</ele>
        <time>2021-06-15T10:01:21.000Z</time>
      </trkpt>
      <trkpt lat="43.47339" lon="6.31301">
        <ele>184</ele>
        <time>2021-06-15T10:01:26.000Z</time>
      </trkpt>
      <trkpt lat="43.47334" lon="6.31291">
        <ele>183</ele>
        <time>2021-04-20T17:56:15.000Z</time>
      </trkpt>
      <trkpt lat="43.47331" lon="6.31283">
        <ele>183</ele>
        <time>2021-04-16T08:46:47.000Z</time>
      </trkpt>
      <trkpt lat="43.47333" lon="6.31272">
        <ele>183</ele>
        <time>2021-04-20T17:56:25.000Z</time>
      </trkpt>
      <trkpt lat="43.47334" lon="6.3126">
        <ele>182</ele>
        <time>2021-06-15T10:01:46.000Z</time>
      </trkpt>
      <trkpt lat="43.47334" lon="6.31252">
        <ele>182</ele>
        <time>2021-06-15T10:01:51.000Z</time>
      </trkpt>
      <trkpt lat="43.4733" lon="6.31242">
        <ele>182</ele>
        <time>2021-06-15T10:01:56.000Z</time>
      </trkpt>
      <trkpt lat="43.47324" lon="6.31233">
        <ele>181</ele>
        <time>2021-06-15T10:02:01.000Z</time>
      </trkpt>
      <trkpt lat="43.47316" lon="6.31225">
        <ele>180</ele>
        <time>2021-06-15T10:02:06.000Z</time>
      </trkpt>
      <trkpt lat="43.47311" lon="6.31218">
        <ele>180</ele>
        <time>2021-06-15T10:02:11.000Z</time>
      </trkpt>
      <trkpt lat="43.47308" lon="6.31209">
        <ele>180</ele>
        <time>2021-04-20T17:56:30.000Z</time>
      </trkpt>
      <trkpt lat="43.47303" lon="6.31203">
        <ele>179</ele>
        <time>2021-04-16T08:46:52.000Z</time>
      </trkpt>
      <trkpt lat="43.47308" lon="6.31194">
        <ele>179</ele>
        <time>2021-06-15T10:02:26.000Z</time>
      </trkpt>
      <trkpt lat="43.47314" lon="6.31182">
        <ele>178</ele>
        <time>2021-06-15T10:02:31.000Z</time>
      </trkpt>
      <trkpt lat="43.4732" lon="6.31168">
        <ele>178</ele>
        <time>2021-06-15T10:02:36.000Z</time>
      </trkpt>
      <trkpt lat="43.47325" lon="6.31155">
        <ele>177</ele>
        <time>2021-06-15T10:02:41.000Z</time>
      </trkpt>
      <trkpt lat="43.47331" lon="6.31145">
        <ele>177</ele>
        <time>2021-06-15T10:02:46.000Z</time>
      </trkpt>
      <trkpt lat="43.47336" lon="6.31133">
        <ele>177</ele>
        <time>2021-06-15T10:02:51.000Z</time>
      </trkpt>
      <trkpt lat="43.47338" lon="6.31124">
        <ele>176</ele>
        <time>2021-06-15T10:02:56.000Z</time>
      </trkpt>
      <trkpt lat="43.47343" lon="6.31111">
        <ele>176</ele>
        <time>2021-06-15T10:03:01.000Z</time>
      </trkpt>
      <trkpt lat="43.47351" lon="6.31099">
        <ele>175</ele>
        <time>2021-06-15T10:03:06.000Z</time>
      </trkpt>
      <trkpt lat="43.47356" lon="6.31087">
        <ele>175</ele>
        <time>2021-06-15T10:03:11.000Z</time>
      </trkpt>
      <trkpt lat="43.47362" lon="6.31073">
        <ele>175</ele>
        <time>2021-06-15T10:03:16.000Z</time>
      </trkpt>
      <trkpt lat="43.47366" lon="6.31062">
        <ele>174</ele>
        <time>2021-06-15T10:03:21.000Z</time>
      </trkpt>
      <trkpt lat="43.47374" lon="6.31047">
        <ele>174</ele>
        <time>2021-06-15T10:03:26.000Z</time>
      </trkpt>
      <trkpt lat="43.47381" lon="6.31036">
        <ele>173</ele>
        <time>2021-06-15T10:03:31.000Z</time>
      </trkpt>
      <trkpt lat="43.47383" lon="6.31023">
        <ele>173</ele>
        <time>2021-04-20T17:56:40.000Z</time>
      </trkpt>
      <trkpt lat="43.47381" lon="6.31006">
        <ele>172</ele>
        <time>2021-04-16T08:46:57.000Z</time>
      </trkpt>
      <trkpt lat="43.47381" lon="6.30992">
        <ele>171</ele>
        <time>2021-04-16T08:47:02.000Z</time>
      </trkpt>
      <trkpt lat="43.47375" lon="6.30977">
        <ele>170</ele>
        <time>2021-04-20T17:56:55.000Z</time>
      </trkpt>
      <trkpt lat="43.47369" lon="6.30957">
        <ele>168</ele>
        <time>2021-06-15T10:03:56.000Z</time>
      </trkpt>
      <trkpt lat="43.47362" lon="6.30936">
        <ele>167</ele>
        <time>2021-04-16T08:47:07.000Z</time>
      </trkpt>
      <trkpt lat="43.47349" lon="6.30918">
        <ele>164</ele>
        <time>2021-04-20T17:57:05.000Z</time>
      </trkpt>
      <trkpt lat="43.47336" lon="6.30898">
        <ele>162</ele>
        <time>2021-06-15T10:04:11.000Z</time>
      </trkpt>
      <trkpt lat="43.47336" lon="6.30875">
        <ele>161</ele>
        <time>2021-04-20T17:57:10.000Z</time>
      </trkpt>
      <trkpt lat="43.47338" lon="6.30862">
        <ele>162</ele>
        <time>2021-06-15T10:04:21.000Z</time>
      </trkpt>
      <trkpt lat="43.47342" lon="6.3085">
        <ele>162</ele>
        <time>2021-06-15T10:04:26.000Z</time>
      </trkpt>
      <trkpt lat="43.47346" lon="6.30835">
        <ele>161</ele>
        <time>2021-06-15T10:04:31.000Z</time>
      </trkpt>
      <trkpt lat="43.47354" lon="6.3082">
        <ele>162</ele>
        <time>2021-04-16T08:47:12.000Z</time>
      </trkpt>
      <trkpt lat="43.47359" lon="6.30809">
        <ele>162</ele>
        <time>2021-06-15T10:04:41.000Z</time>
      </trkpt>
      <trkpt lat="43.47366" lon="6.30798">
        <ele>162</ele>
        <time>2021-04-20T17:57:20.000Z</time>
      </trkpt>
      <trkpt lat="43.47376" lon="6.30778">
        <ele>161</ele>
        <time>2021-04-20T17:57:25.000Z</time>
      </trkpt>
      <trkpt lat="43.474" lon="6.30747">
        <ele>157</ele>
        <time>2021-04-20T17:57:30.000Z</time>
      </trkpt>
      <trkpt lat="43.47402" lon="6.30741">
        <ele>156</ele>
        <time>2021-06-15T10:05:01.000Z</time>
      </trkpt>
      <trkpt lat="43.4739" lon="6.30739">
        <ele>157</ele>
        <time>2021-06-15T10:05:06.000Z</time>
      </trkpt>
      <trkpt lat="43.47404" lon="6.30737">
        <ele>155</ele>
        <time>2021-06-15T10:05:11.000Z</time>
      </trkpt>
      <trkpt lat="43.47411" lon="6.30726">
        <ele>153</ele>
        <time>2021-06-15T10:05:16.000Z</time>
      </trkpt>
      <trkpt lat="43.47422" lon="6.30706">
        <ele>148</ele>
        <time>2021-04-20T17:57:35.000Z</time>
      </trkpt>
      <trkpt lat="43.47446" lon="6.30659">
        <ele>138</ele>
        <time>2021-04-16T08:47:17.000Z</time>
      </trkpt>
      <trkpt lat="43.47454" lon="6.30634">
        <ele>134</ele>
        <time>2021-04-20T17:57:45.000Z</time>
      </trkpt>
      <trkpt lat="43.47465" lon="6.30613">
        <ele>131</ele>
        <time>2021-04-16T08:47:22.000Z</time>
      </trkpt>
      <trkpt lat="43.47494" lon="6.30598">
        <ele>130</ele>
        <time>2021-04-20T17:57:55.000Z</time>
      </trkpt>
      <trkpt lat="43.47522" lon="6.3059">
        <ele>132</ele>
        <time>2021-06-15T10:05:46.000Z</time>
      </trkpt>
      <trkpt lat="43.47545" lon="6.30586">
        <ele>133</ele>
        <time>2021-04-16T08:47:27.000Z</time>
      </trkpt>
      <trkpt lat="43.47525" lon="6.30585">
        <ele>131</ele>
        <time>2021-06-15T10:05:56.000Z</time>
      </trkpt>
      <trkpt lat="43.47526" lon="6.30571">
        <ele>130</ele>
        <time>2021-06-15T10:06:01.000Z</time>
      </trkpt>
      <trkpt lat="43.47525" lon="6.30553">
        <ele>129</ele>
        <time>2021-04-20T17:58:05.000Z</time>
      </trkpt>
      <trkpt lat="43.47523" lon="6.30526">
        <ele>131</ele>
        <time>2021-06-15T10:06:11.000Z</time>
      </trkpt>
      <trkpt lat="43.47534" lon="6.30526">
        <ele>131</ele>
        <time>2021-06-15T10:06:16.000Z</time>
      </trkpt>
      <trkpt lat="43.47547" lon="6.30522">
        <ele>132</ele>
        <time>2021-04-16T08:47:32.000Z</time>
      </trkpt>
      <trkpt lat="43.47523" lon="6.30521">
        <ele>131</ele>
        <time>2021-06-15T10:06:26.000Z</time>
      </trkpt>
      <trkpt lat="43.47504" lon="6.30513">
        <ele>129</ele>
        <time>2021-04-20T17:58:15.000Z</time>
      </trkpt>
      <trkpt lat="43.47486" lon="6.30507">
        <ele>128</ele>
        <time>2021-04-20T17:58:20.000Z</time>
      </trkpt>
      <trkpt lat="43.47449" lon="6.30499">
        <ele>127</ele>
        <time>2021-04-20T17:58:25.000Z</time>
      </trkpt>
      <trkpt lat="43.47427" lon="6.30495">
        <ele>124</ele>
        <time>2021-04-20T17:58:30.000Z</time>
      </trkpt>
      <trkpt lat="43.47405" lon="6.30491">
        <ele>122</ele>
        <time>2021-04-20T17:58:35.000Z</time>
      </trkpt>
      <trkpt lat="43.47389" lon="6.30484">
        <ele>121</ele>
        <time>2021-04-20T17:58:40.000Z</time>
      </trkpt>
      <trkpt lat="43.47366" lon="6.30469">
        <ele>120</ele>
        <time>2021-04-16T08:47:37.000Z</time>
      </trkpt>
      <trkpt lat="43.47349" lon="6.3045">
        <ele>120</ele>
        <time>2021-04-20T17:58:50.000Z</time>
      </trkpt>
      <trkpt lat="43.47342" lon="6.30441">
        <ele>120</ele>
        <time>2021-06-15T10:07:11.000Z</time>
      </trkpt>
      <trkpt lat="43.47332" lon="6.30434">
        <ele>120</ele>
        <time>2021-04-20T17:58:55.000Z</time>
      </trkpt>
      <trkpt lat="43.47307" lon="6.30421">
        <ele>119</ele>
        <time>2021-04-20T17:59:00.000Z</time>
      </trkpt>
      <trkpt lat="43.47286" lon="6.30406">
        <ele>117</ele>
        <time>2021-04-16T08:47:42.000Z</time>
      </trkpt>
      <trkpt lat="43.4729" lon="6.30385">
        <ele>117</ele>
        <time>2021-04-20T17:59:10.000Z</time>
      </trkpt>
      <trkpt lat="43.47294" lon="6.30363">
        <ele>116</ele>
        <time>2021-04-20T17:59:15.000Z</time>
      </trkpt>
      <trkpt lat="43.47303" lon="6.3032">
        <ele>114</ele>
        <time>2021-04-16T08:47:47.000Z</time>
      </trkpt>
      <trkpt lat="43.473" lon="6.30295">
        <ele>112</ele>
        <time>2021-04-20T17:59:25.000Z</time>
      </trkpt>
      <trkpt lat="43.47298" lon="6.30269">
        <ele>110</ele>
        <time>2021-04-16T08:47:52.000Z</time>
      </trkpt>
      <trkpt lat="43.47303" lon="6.30232">
        <ele>108</ele>
        <time>2021-04-20T17:59:35.000Z</time>
      </trkpt>
      <trkpt lat="43.47309" lon="6.30195">
        <ele>106</ele>
        <time>2021-04-20T17:59:40.000Z</time>
      </trkpt>
      <trkpt lat="43.47314" lon="6.30157">
        <ele>105</ele>
        <time>2021-04-20T17:59:45.000Z</time>
      </trkpt>
      <trkpt lat="43.47319" lon="6.3012">
        <ele>103</ele>
        <time>2021-04-16T08:47:57.000Z</time>
      </trkpt>
      <trkpt lat="43.47338" lon="6.30094">
        <ele>102</ele>
        <time>2021-04-16T08:48:02.000Z</time>
      </trkpt>
      <trkpt lat="43.47352" lon="6.30095">
        <ele>102</ele>
        <time>2021-04-16T08:48:07.000Z</time>
      </trkpt>
      <trkpt lat="43.47374" lon="6.30095">
        <ele>101</ele>
        <time>2021-04-20T18:00:05.000Z</time>
      </trkpt>
      <trkpt lat="43.47395" lon="6.30095">
        <ele>99</ele>
        <time>2021-04-16T08:48:12.000Z</time>
      </trkpt>
      <trkpt lat="43.47424" lon="6.30137">
        <ele>103</ele>
        <time>2021-04-20T18:00:15.000Z</time>
      </trkpt>
      <trkpt lat="43.47453" lon="6.30178">
        <ele>108</ele>
        <time>2021-04-16T08:48:17.000Z</time>
      </trkpt>
      <trkpt lat="43.47515" lon="6.30222">
        <ele>110</ele>
        <time>2021-04-16T08:48:22.000Z</time>
      </trkpt>
      <trkpt lat="43.47554" lon="6.30236">
        <ele>108</ele>
        <time>2021-06-15T10:08:51.000Z</time>
      </trkpt>
      <trkpt lat="43.47578" lon="6.30242">
        <ele>107</ele>
        <time>2021-06-15T10:08:56.000Z</time>
      </trkpt>
      <trkpt lat="43.47601" lon="6.30242">
        <ele>107</ele>
        <time>2021-04-16T08:48:27.000Z</time>
      </trkpt>
      <trkpt lat="43.4762" lon="6.30236">
        <ele>107</ele>
        <time>2021-06-15T10:09:06.000Z</time>
      </trkpt>
      <trkpt lat="43.47635" lon="6.30226">
        <ele>106</ele>
        <time>2021-04-16T08:48:32.000Z</time>
      </trkpt>
      <trkpt lat="43.47655" lon="6.30191">
        <ele>102</ele>
        <time>2021-04-16T08:48:37.000Z</time>
      </trkpt>
      <trkpt lat="43.47664" lon="6.30181">
        <ele>101</ele>
        <time>2021-06-15T10:09:21.000Z</time>
      </trkpt>
      <trkpt lat="43.47674" lon="6.30174">
        <ele>102</ele>
        <time>2021-04-20T18:00:45.000Z</time>
      </trkpt>
      <trkpt lat="43.47683" lon="6.30165">
        <ele>103</ele>
        <time>2021-06-15T10:09:31.000Z</time>
      </trkpt>
      <trkpt lat="43.47693" lon="6.30156">
        <ele>104</ele>
        <time>2021-04-20T18:00:50.000Z</time>
      </trkpt>
      <trkpt lat="43.47714" lon="6.30141">
        <ele>107</ele>
        <time>2021-04-20T18:00:55.000Z</time>
      </trkpt>
      <trkpt lat="43.47731" lon="6.30121">
        <ele>107</ele>
        <time>2021-04-16T08:48:42.000Z</time>
      </trkpt>
      <trkpt lat="43.47747" lon="6.30098">
        <ele>106</ele>
        <time>2021-04-20T18:01:05.000Z</time>
      </trkpt>
      <trkpt lat="43.47759" lon="6.30074">
        <ele>104</ele>
        <time>2021-04-20T18:01:10.000Z</time>
      </trkpt>
      <trkpt lat="43.47787" lon="6.30027">
        <ele>105</ele>
        <time>2021-04-16T08:48:47.000Z</time>
      </trkpt>
      <trkpt lat="43.47801" lon="6.29991">
        <ele>108</ele>
        <time>2021-04-20T18:01:20.000Z</time>
      </trkpt>
      <trkpt lat="43.47806" lon="6.29953">
        <ele>106</ele>
        <time>2021-04-20T18:01:25.000Z</time>
      </trkpt>
      <trkpt lat="43.47813" lon="6.29913">
        <ele>105</ele>
        <time>2021-04-20T18:01:30.000Z</time>
      </trkpt>
      <trkpt lat="43.47818" lon="6.29874">
        <ele>104</ele>
        <time>2021-04-16T08:48:52.000Z</time>
      </trkpt>
      <trkpt lat="43.47823" lon="6.29808">
        <ele>102</ele>
        <time>2021-04-20T18:01:40.000Z</time>
      </trkpt>
      <trkpt lat="43.47817" lon="6.2979">
        <ele>99</ele>
        <time>2021-04-16T08:48:57.000Z</time>
      </trkpt>
      <trkpt lat="43.47809" lon="6.29766">
        <ele>96</ele>
        <time>2021-04-20T18:01:50.000Z</time>
      </trkpt>
      <trkpt lat="43.47793" lon="6.29757">
        <ele>94</ele>
        <time>2021-04-20T18:01:55.000Z</time>
      </trkpt>
      <trkpt lat="43.47783" lon="6.29736">
        <ele>93</ele>
        <time>2021-04-20T18:02:00.000Z</time>
      </trkpt>
      <trkpt lat="43.47778" lon="6.29727">
        <ele>93</ele>
        <time>2021-06-15T10:10:51.000Z</time>
      </trkpt>
      <trkpt lat="43.47767" lon="6.29722">
        <ele>93</ele>
        <time>2021-04-20T18:02:05.000Z</time>
      </trkpt>
      <trkpt lat="43.47757" lon="6.2972">
        <ele>92</ele>
        <time>2021-06-15T10:11:01.000Z</time>
      </trkpt>
      <trkpt lat="43.47751" lon="6.29713">
        <ele>92</ele>
        <time>2021-04-20T18:02:10.000Z</time>
      </trkpt>
      <trkpt lat="43.47743" lon="6.29707">
        <ele>92</ele>
        <time>2021-06-15T10:11:11.000Z</time>
      </trkpt>
      <trkpt lat="43.4773" lon="6.29713">
        <ele>91</ele>
        <time>2021-06-15T10:11:16.000Z</time>
      </trkpt>
      <trkpt lat="43.47741" lon="6.29705">
        <ele>92</ele>
        <time>2021-06-15T10:11:21.000Z</time>
      </trkpt>
      <trkpt lat="43.47744" lon="6.29693">
        <ele>92</ele>
        <time>2021-06-15T10:11:26.000Z</time>
      </trkpt>
      <trkpt lat="43.47747" lon="6.2967">
        <ele>92</ele>
        <time>2021-04-20T18:02:15.000Z</time>
      </trkpt>
      <trkpt lat="43.47754" lon="6.29654">
        <ele>92</ele>
        <time>2021-06-15T10:11:36.000Z</time>
      </trkpt>
      <trkpt lat="43.47763" lon="6.2965">
        <ele>93</ele>
        <time>2021-04-20T18:02:20.000Z</time>
      </trkpt>
      <trkpt lat="43.47776" lon="6.29639">
        <ele>93</ele>
        <time>2021-04-20T18:02:25.000Z</time>
      </trkpt>
      <trkpt lat="43.47783" lon="6.29611">
        <ele>93</ele>
        <time>2021-04-20T18:02:30.000Z</time>
      </trkpt>
      <trkpt lat="43.47799" lon="6.29587">
        <ele>94</ele>
        <time>2021-04-20T18:02:35.000Z</time>
      </trkpt>
      <trkpt lat="43.47822" lon="6.29573">
        <ele>95</ele>
        <time>2021-04-20T18:02:40.000Z</time>
      </trkpt>
      <trkpt lat="43.47841" lon="6.2955">
        <ele>98</ele>
        <time>2021-04-16T08:49:02.000Z</time>
      </trkpt>
      <trkpt lat="43.47859" lon="6.29537">
        <ele>103</ele>
        <time>2021-04-16T08:49:07.000Z</time>
      </trkpt>
      <trkpt lat="43.47907" lon="6.29469">
        <ele>106</ele>
        <time>2021-04-16T08:49:12.000Z</time>
      </trkpt>
      <trkpt lat="43.47935" lon="6.29442">
        <ele>107</ele>
        <time>2021-06-15T10:12:21.000Z</time>
      </trkpt>
      <trkpt lat="43.4795" lon="6.29429">
        <ele>108</ele>
        <time>2021-06-15T10:12:26.000Z</time>
      </trkpt>
      <trkpt lat="43.47964" lon="6.29416">
        <ele>107</ele>
        <time>2021-04-16T08:49:17.000Z</time>
      </trkpt>
      <trkpt lat="43.47993" lon="6.2939">
        <ele>107</ele>
        <time>2021-06-15T10:12:36.000Z</time>
      </trkpt>
      <trkpt lat="43.48023" lon="6.29369">
        <ele>107</ele>
        <time>2021-04-16T08:49:22.000Z</time>
      </trkpt>
      <trkpt lat="43.48046" lon="6.2936">
        <ele>107</ele>
        <time>2021-06-15T10:12:46.000Z</time>
      </trkpt>
      <trkpt lat="43.48056" lon="6.29355">
        <ele>106</ele>
        <time>2021-06-15T10:12:51.000Z</time>
      </trkpt>
      <trkpt lat="43.48069" lon="6.29353">
        <ele>104</ele>
        <time>2021-04-16T08:49:27.000Z</time>
      </trkpt>
      <trkpt lat="43.48091" lon="6.29328">
        <ele>102</ele>
        <time>2021-04-20T18:03:15.000Z</time>
      </trkpt>
      <trkpt lat="43.48084" lon="6.29304">
        <ele>100</ele>
        <time>2021-04-20T18:03:20.000Z</time>
      </trkpt>
      <trkpt lat="43.48081" lon="6.2929">
        <ele>99</ele>
        <time>2021-06-15T10:13:11.000Z</time>
      </trkpt>
      <trkpt lat="43.4809" lon="6.29279">
        <ele>100</ele>
        <time>2021-04-20T18:03:25.000Z</time>
      </trkpt>
      <trkpt lat="43.48105" lon="6.29257">
        <ele>99</ele>
        <time>2021-04-20T18:03:30.000Z</time>
      </trkpt>
      <trkpt lat="43.48116" lon="6.29239">
        <ele>99</ele>
        <time>2021-04-20T18:03:35.000Z</time>
      </trkpt>
      <trkpt lat="43.48127" lon="6.29222">
        <ele>99</ele>
        <time>2021-04-20T18:03:40.000Z</time>
      </trkpt>
      <trkpt lat="43.48147" lon="6.29193">
        <ele>98</ele>
        <time>2021-04-20T18:03:45.000Z</time>
      </trkpt>
      <trkpt lat="43.4816" lon="6.29172">
        <ele>98</ele>
        <time>2021-04-20T18:03:50.000Z</time>
      </trkpt>
      <trkpt lat="43.48172" lon="6.29152">
        <ele>98</ele>
        <time>2021-06-15T10:13:46.000Z</time>
      </trkpt>
      <trkpt lat="43.48182" lon="6.29135">
        <ele>98</ele>
        <time>2021-04-20T18:03:55.000Z</time>
      </trkpt>
      <trkpt lat="43.48188" lon="6.2913">
        <ele>98</ele>
        <time>2021-06-15T10:13:56.000Z</time>
      </trkpt>
      <trkpt lat="43.48206" lon="6.29144">
        <ele>100</ele>
        <time>2021-04-16T08:49:32.000Z</time>
      </trkpt>
      <trkpt lat="43.48217" lon="6.29148">
        <ele>101</ele>
        <time>2021-04-20T18:04:05.000Z</time>
      </trkpt>
      <trkpt lat="43.48229" lon="6.2915">
        <ele>106</ele>
        <time>2021-04-16T08:49:37.000Z</time>
      </trkpt>
      <trkpt lat="43.4824" lon="6.2912">
        <ele>109</ele>
        <time>2021-04-20T18:04:15.000Z</time>
      </trkpt>
      <trkpt lat="43.48243" lon="6.29091">
        <ele>107</ele>
        <time>2021-04-20T18:04:20.000Z</time>
      </trkpt>
      <trkpt lat="43.48245" lon="6.29033">
        <ele>106</ele>
        <time>2021-04-16T08:49:42.000Z</time>
      </trkpt>
      <trkpt lat="43.48245" lon="6.28943">
        <ele>105</ele>
        <time>2021-04-16T08:49:47.000Z</time>
      </trkpt>
      <trkpt lat="43.48256" lon="6.28922">
        <ele>106</ele>
        <time>2021-04-16T08:49:52.000Z</time>
      </trkpt>
      <trkpt lat="43.4828" lon="6.28891">
        <ele>106</ele>
        <time>2021-04-20T18:04:40.000Z</time>
      </trkpt>
      <trkpt lat="43.48326" lon="6.28875">
        <ele>109</ele>
        <time>2021-04-16T08:49:57.000Z</time>
      </trkpt>
      <trkpt lat="43.48363" lon="6.28858">
        <ele>107</ele>
        <time>2021-04-16T08:50:02.000Z</time>
      </trkpt>
      <trkpt lat="43.48384" lon="6.28858">
        <ele>107</ele>
        <time>2021-04-20T18:04:55.000Z</time>
      </trkpt>
      <trkpt lat="43.48406" lon="6.28857">
        <ele>107</ele>
        <time>2021-04-16T08:50:07.000Z</time>
      </trkpt>
      <trkpt lat="43.48419" lon="6.28854">
        <ele>106</ele>
        <time>2021-04-20T18:05:05.000Z</time>
      </trkpt>
      <trkpt lat="43.48437" lon="6.28848">
        <ele>106</ele>
        <time>2021-04-20T18:05:10.000Z</time>
      </trkpt>
      <trkpt lat="43.48453" lon="6.28846">
        <ele>105</ele>
        <time>2021-04-20T18:05:15.000Z</time>
      </trkpt>
      <trkpt lat="43.4847" lon="6.28842">
        <ele>105</ele>
        <time>2021-04-16T08:50:12.000Z</time>
      </trkpt>
      <trkpt lat="43.48485" lon="6.28821">
        <ele>106</ele>
        <time>2021-04-20T18:05:25.000Z</time>
      </trkpt>
      <trkpt lat="43.48503" lon="6.2881">
        <ele>108</ele>
        <time>2021-04-16T08:50:17.000Z</time>
      </trkpt>
      <trkpt lat="43.48515" lon="6.2882">
        <ele>110</ele>
        <time>2021-06-15T10:15:36.000Z</time>
      </trkpt>
      <trkpt lat="43.48521" lon="6.28835">
        <ele>112</ele>
        <time>2021-06-15T10:15:41.000Z</time>
      </trkpt>
      <trkpt lat="43.48525" lon="6.28842">
        <ele>114</ele>
        <time>2021-06-15T10:15:46.000Z</time>
      </trkpt>
      <trkpt lat="43.48532" lon="6.28848">
        <ele>115</ele>
        <time>2021-06-15T10:15:51.000Z</time>
      </trkpt>
      <trkpt lat="43.48539" lon="6.2886">
        <ele>117</ele>
        <time>2021-04-16T08:50:22.000Z</time>
      </trkpt>
      <trkpt lat="43.4854" lon="6.28882">
        <ele>118</ele>
        <time>2021-06-15T10:16:01.000Z</time>
      </trkpt>
      <trkpt lat="43.48554" lon="6.28904">
        <ele>120</ele>
        <time>2021-04-16T08:50:27.000Z</time>
      </trkpt>
      <trkpt lat="43.48581" lon="6.28934">
        <ele>120</ele>
        <time>2021-04-16T08:50:32.000Z</time>
      </trkpt>
      <trkpt lat="43.48625" lon="6.28946">
        <ele>124</ele>
        <time>2021-04-16T08:50:37.000Z</time>
      </trkpt>
      <trkpt lat="43.48632" lon="6.28964">
        <ele>126</ele>
        <time>2021-06-15T10:16:21.000Z</time>
      </trkpt>
      <trkpt lat="43.48634" lon="6.28991">
        <ele>128</ele>
        <time>2021-06-15T10:16:26.000Z</time>
      </trkpt>
      <trkpt lat="43.4863" lon="6.2901">
        <ele>129</ele>
        <time>2021-04-16T08:50:42.000Z</time>
      </trkpt>
      <trkpt lat="43.48613" lon="6.2908">
        <ele>135</ele>
        <time>2021-04-16T08:50:47.000Z</time>
      </trkpt>
      <trkpt lat="43.48602" lon="6.29106">
        <ele>139</ele>
        <time>2021-06-15T10:16:41.000Z</time>
      </trkpt>
      <trkpt lat="43.48581" lon="6.29125">
        <ele>139</ele>
        <time>2021-06-15T10:16:46.000Z</time>
      </trkpt>
      <trkpt lat="43.48572" lon="6.29137">
        <ele>141</ele>
        <time>2021-04-16T08:50:52.000Z</time>
      </trkpt>
      <trkpt lat="43.48566" lon="6.29152">
        <ele>143</ele>
        <time>2021-06-15T10:16:56.000Z</time>
      </trkpt>
      <trkpt lat="43.4856" lon="6.29169">
        <ele>145</ele>
        <time>2021-04-16T08:50:57.000Z</time>
      </trkpt>
      <trkpt lat="43.48583" lon="6.29161">
        <ele>146</ele>
        <time>2021-06-15T10:17:06.000Z</time>
      </trkpt>
      <trkpt lat="43.48603" lon="6.29147">
        <ele>146</ele>
        <time>2021-04-16T08:51:02.000Z</time>
      </trkpt>
      <trkpt lat="43.4862" lon="6.29121">
        <ele>146</ele>
        <time>2021-04-20T18:06:20.000Z</time>
      </trkpt>
      <trkpt lat="43.48653" lon="6.29103">
        <ele>149</ele>
        <time>2021-04-20T18:06:25.000Z</time>
      </trkpt>
      <trkpt lat="43.48683" lon="6.29089">
        <ele>152</ele>
        <time>2021-04-20T18:06:30.000Z</time>
      </trkpt>
      <trkpt lat="43.48707" lon="6.29083">
        <ele>155</ele>
        <time>2021-04-20T18:06:35.000Z</time>
      </trkpt>
      <trkpt lat="43.48728" lon="6.29079">
        <ele>158</ele>
        <time>2021-04-20T18:06:40.000Z</time>
      </trkpt>
      <trkpt lat="43.48743" lon="6.29088">
        <ele>161</ele>
        <time>2021-06-15T10:17:41.000Z</time>
      </trkpt>
      <trkpt lat="43.48753" lon="6.29094">
        <ele>161</ele>
        <time>2021-04-16T08:51:07.000Z</time>
      </trkpt>
      <trkpt lat="43.48764" lon="6.291">
        <ele>161</ele>
        <time>2021-06-15T10:17:51.000Z</time>
      </trkpt>
      <trkpt lat="43.48767" lon="6.2911">
        <ele>162</ele>
        <time>2021-06-15T10:17:56.000Z</time>
      </trkpt>
      <trkpt lat="43.48773" lon="6.2914">
        <ele>164</ele>
        <time>2021-06-15T10:18:01.000Z</time>
      </trkpt>
      <trkpt lat="43.48774" lon="6.29151">
        <ele>165</ele>
        <time>2021-04-20T18:06:50.000Z</time>
      </trkpt>
      <trkpt lat="43.48792" lon="6.29217">
        <ele>173</ele>
        <time>2021-04-16T08:51:12.000Z</time>
      </trkpt>
      <trkpt lat="43.48807" lon="6.29272">
        <ele>182</ele>
        <time>2021-04-20T18:07:00.000Z</time>
      </trkpt>
      <trkpt lat="43.48819" lon="6.29331">
        <ele>189</ele>
        <time>2021-04-16T08:51:17.000Z</time>
      </trkpt>
      <trkpt lat="43.4884" lon="6.29415">
        <ele>200</ele>
        <time>2021-04-16T08:51:22.000Z</time>
      </trkpt>
      <trkpt lat="43.48861" lon="6.2943">
        <ele>201</ele>
        <time>2021-04-16T08:51:27.000Z</time>
      </trkpt>
      <trkpt lat="43.48891" lon="6.29497">
        <ele>208</ele>
        <time>2021-04-16T08:51:32.000Z</time>
      </trkpt>
      <trkpt lat="43.48854" lon="6.29533">
        <ele>217</ele>
        <time>2021-04-16T08:51:37.000Z</time>
      </trkpt>
      <trkpt lat="43.48848" lon="6.2958">
        <ele>219</ele>
        <time>2021-04-16T08:51:42.000Z</time>
      </trkpt>
      <trkpt lat="43.48823" lon="6.29641">
        <ele>224</ele>
        <time>2021-04-20T18:07:35.000Z</time>
      </trkpt>
      <trkpt lat="43.48798" lon="6.29701">
        <ele>230</ele>
        <time>2021-04-20T18:07:40.000Z</time>
      </trkpt>
      <trkpt lat="43.48774" lon="6.29762">
        <ele>237</ele>
        <time>2021-04-20T18:07:45.000Z</time>
      </trkpt>
      <trkpt lat="43.48756" lon="6.29802">
        <ele>242</ele>
        <time>2021-06-15T10:19:06.000Z</time>
      </trkpt>
      <trkpt lat="43.48748" lon="6.29818">
        <ele>244</ele>
        <time>2021-06-15T10:19:11.000Z</time>
      </trkpt>
      <trkpt lat="43.48712" lon="6.2982">
        <ele>248</ele>
        <time>2021-04-16T08:51:47.000Z</time>
      </trkpt>
      <trkpt lat="43.48748" lon="6.29827">
        <ele>245</ele>
        <time>2021-06-15T10:19:21.000Z</time>
      </trkpt>
      <trkpt lat="43.48745" lon="6.29846">
        <ele>246</ele>
        <time>2021-06-15T10:19:26.000Z</time>
      </trkpt>
      <trkpt lat="43.4874" lon="6.29871">
        <ele>247</ele>
        <time>2021-04-20T18:07:55.000Z</time>
      </trkpt>
      <trkpt lat="43.48731" lon="6.2992">
        <ele>249</ele>
        <time>2021-04-16T08:51:52.000Z</time>
      </trkpt>
      <trkpt lat="43.48721" lon="6.29968">
        <ele>252</ele>
        <time>2021-04-20T18:08:05.000Z</time>
      </trkpt>
      <trkpt lat="43.4871" lon="6.30016">
        <ele>252</ele>
        <time>2021-04-16T08:51:57.000Z</time>
      </trkpt>
      <trkpt lat="43.48711" lon="6.30088">
        <ele>253</ele>
        <time>2021-04-20T18:08:15.000Z</time>
      </trkpt>
      <trkpt lat="43.48713" lon="6.3016">
        <ele>255</ele>
        <time>2021-04-16T08:52:02.000Z</time>
      </trkpt>
      <trkpt lat="43.48717" lon="6.302">
        <ele>256</ele>
        <time>2021-04-20T18:08:25.000Z</time>
      </trkpt>
      <trkpt lat="43.48722" lon="6.30241">
        <ele>258</ele>
        <time>2021-04-16T08:52:07.000Z</time>
      </trkpt>
      <trkpt lat="43.48756" lon="6.30237">
        <ele>260</ele>
        <time>2021-04-16T08:52:12.000Z</time>
      </trkpt>
      <trkpt lat="43.48792" lon="6.3025">
        <ele>261</ele>
        <time>2021-06-15T10:20:16.000Z</time>
      </trkpt>
      <trkpt lat="43.4881" lon="6.3028">
        <ele>261</ele>
        <time>2021-06-15T10:20:21.000Z</time>
      </trkpt>
      <trkpt lat="43.4881" lon="6.30319">
        <ele>261</ele>
        <time>2021-06-15T10:20:26.000Z</time>
      </trkpt>
      <trkpt lat="43.48833" lon="6.30342">
        <ele>261</ele>
        <time>2021-04-16T08:52:17.000Z</time>
      </trkpt>
      <trkpt lat="43.48897" lon="6.30373">
        <ele>261</ele>
        <time>2021-04-16T08:52:22.000Z</time>
      </trkpt>
      <trkpt lat="43.48928" lon="6.30383">
        <ele>261</ele>
        <time>2021-04-16T08:52:27.000Z</time>
      </trkpt>
      <trkpt lat="43.48956" lon="6.3037">
        <ele>262</ele>
        <time>2021-04-16T08:52:32.000Z</time>
      </trkpt>
      <trkpt lat="43.48996" lon="6.30385">
        <ele>267</ele>
        <time>2021-04-16T08:52:37.000Z</time>
      </trkpt>
      <trkpt lat="43.49043" lon="6.30381">
        <ele>269</ele>
        <time>2021-04-16T08:52:42.000Z</time>
      </trkpt>
      <trkpt lat="43.49082" lon="6.30392">
        <ele>269</ele>
        <time>2021-04-20T18:09:10.000Z</time>
      </trkpt>
      <trkpt lat="43.49122" lon="6.30403">
        <ele>266</ele>
        <time>2021-04-20T18:09:15.000Z</time>
      </trkpt>
      <trkpt lat="43.49162" lon="6.30418">
        <ele>262</ele>
        <time>2021-06-15T10:21:11.000Z</time>
      </trkpt>
      <trkpt lat="43.4918" lon="6.30422">
        <ele>261</ele>
        <time>2021-06-15T10:21:16.000Z</time>
      </trkpt>
      <trkpt lat="43.49198" lon="6.30425">
        <ele>260</ele>
        <time>2021-06-15T10:21:21.000Z</time>
      </trkpt>
      <trkpt lat="43.49203" lon="6.30407">
        <ele>260</ele>
        <time>2021-06-15T10:21:26.000Z</time>
      </trkpt>
      <trkpt lat="43.49208" lon="6.30372">
        <ele>260</ele>
        <time>2021-04-16T08:52:47.000Z</time>
      </trkpt>
      <trkpt lat="43.49201" lon="6.30423">
        <ele>260</ele>
        <time>2021-06-15T10:21:36.000Z</time>
      </trkpt>
      <trkpt lat="43.49199" lon="6.30452">
        <ele>260</ele>
        <time>2021-06-15T10:21:41.000Z</time>
      </trkpt>
      <trkpt lat="43.49197" lon="6.30499">
        <ele>260</ele>
        <time>2021-04-20T18:09:25.000Z</time>
      </trkpt>
      <trkpt lat="43.49204" lon="6.30575">
        <ele>252</ele>
        <time>2021-04-16T08:52:52.000Z</time>
      </trkpt>
      <trkpt lat="43.49204" lon="6.30684">
        <ele>245</ele>
        <time>2021-04-16T08:52:57.000Z</time>
      </trkpt>
      <trkpt lat="43.49196" lon="6.30757">
        <ele>251</ele>
        <time>2021-06-15T10:22:01.000Z</time>
      </trkpt>
      <trkpt lat="43.49193" lon="6.30798">
        <ele>253</ele>
        <time>2021-06-15T10:22:06.000Z</time>
      </trkpt>
      <trkpt lat="43.49152" lon="6.30808">
        <ele>248</ele>
        <time>2021-04-16T08:53:02.000Z</time>
      </trkpt>
      <trkpt lat="43.49192" lon="6.30804">
        <ele>254</ele>
        <time>2021-06-15T10:22:16.000Z</time>
      </trkpt>
      <trkpt lat="43.49188" lon="6.3083">
        <ele>255</ele>
        <time>2021-06-15T10:22:21.000Z</time>
      </trkpt>
      <trkpt lat="43.49183" lon="6.30878">
        <ele>258</ele>
        <time>2021-06-15T10:22:26.000Z</time>
      </trkpt>
      <trkpt lat="43.49171" lon="6.30964">
        <ele>260</ele>
        <time>2021-04-16T08:53:07.000Z</time>
      </trkpt>
      <trkpt lat="43.49179" lon="6.31107">
        <ele>263</ele>
        <time>2021-04-16T08:53:12.000Z</time>
      </trkpt>
      <trkpt lat="43.4917" lon="6.31186">
        <ele>268</ele>
        <time>2021-06-15T10:22:41.000Z</time>
      </trkpt>
      <trkpt lat="43.49163" lon="6.31259">
        <ele>270</ele>
        <time>2021-04-16T08:53:17.000Z</time>
      </trkpt>
      <trkpt lat="43.49162" lon="6.31274">
        <ele>270</ele>
        <time>2021-06-15T10:22:51.000Z</time>
      </trkpt>
      <trkpt lat="43.49146" lon="6.31284">
        <ele>270</ele>
        <time>2021-06-15T10:22:56.000Z</time>
      </trkpt>
      <trkpt lat="43.49126" lon="6.31297">
        <ele>270</ele>
        <time>2021-06-15T10:23:01.000Z</time>
      </trkpt>
      <trkpt lat="43.49152" lon="6.31285">
        <ele>270</ele>
        <time>2021-06-15T10:23:06.000Z</time>
      </trkpt>
      <trkpt lat="43.49169" lon="6.31276">
        <ele>270</ele>
        <time>2021-06-15T10:23:11.000Z</time>
      </trkpt>
      <trkpt lat="43.49171" lon="6.31286">
        <ele>269</ele>
        <time>2021-04-16T08:53:22.000Z</time>
      </trkpt>
      <trkpt lat="43.49195" lon="6.31405">
        <ele>256</ele>
        <time>2021-04-16T08:53:27.000Z</time>
      </trkpt>
      <trkpt lat="43.4919" lon="6.31457">
        <ele>251</ele>
        <time>2021-06-15T10:23:26.000Z</time>
      </trkpt>
      <trkpt lat="43.49195" lon="6.31508">
        <ele>248</ele>
        <time>2021-04-16T08:53:32.000Z</time>
      </trkpt>
      <trkpt lat="43.49242" lon="6.31601">
        <ele>239</ele>
        <time>2021-04-16T08:53:37.000Z</time>
      </trkpt>
      <trkpt lat="43.4927" lon="6.31713">
        <ele>230</ele>
        <time>2021-04-16T08:53:42.000Z</time>
      </trkpt>
      <trkpt lat="43.49327" lon="6.3183">
        <ele>223</ele>
        <time>2021-04-16T08:53:47.000Z</time>
      </trkpt>
      <trkpt lat="43.49354" lon="6.31894">
        <ele>219</ele>
        <time>2021-04-16T08:53:52.000Z</time>
      </trkpt>
      <trkpt lat="43.49335" lon="6.32066">
        <ele>209</ele>
        <time>2021-04-16T08:53:57.000Z</time>
      </trkpt>
      <trkpt lat="43.4934" lon="6.3214">
        <ele>208</ele>
        <time>2021-04-16T08:54:02.000Z</time>
      </trkpt>
      <trkpt lat="43.49389" lon="6.32255">
        <ele>200</ele>
        <time>2021-04-16T08:54:07.000Z</time>
      </trkpt>
      <trkpt lat="43.49365" lon="6.32356">
        <ele>193</ele>
        <time>2021-04-16T08:54:12.000Z</time>
      </trkpt>
      <trkpt lat="43.49341" lon="6.32436">
        <ele>188</ele>
        <time>2021-04-16T08:54:17.000Z</time>
      </trkpt>
      <trkpt lat="43.49353" lon="6.3255">
        <ele>184</ele>
        <time>2021-04-16T08:54:22.000Z</time>
      </trkpt>
      <trkpt lat="43.49324" lon="6.32571">
        <ele>182</ele>
        <time>2021-04-16T08:54:27.000Z</time>
      </trkpt>
      <trkpt lat="43.49295" lon="6.32703">
        <ele>180</ele>
        <time>2021-04-16T08:54:32.000Z</time>
      </trkpt>
      <trkpt lat="43.49268" lon="6.32785">
        <ele>180</ele>
        <time>2021-04-16T08:54:37.000Z</time>
      </trkpt>
      <trkpt lat="43.49257" lon="6.32832">
        <ele>179</ele>
        <time>2021-06-15T10:24:41.000Z</time>
      </trkpt>
      <trkpt lat="43.49246" lon="6.32879">
        <ele>179</ele>
        <time>2021-04-16T08:54:42.000Z</time>
      </trkpt>
      <trkpt lat="43.49209" lon="6.32887">
        <ele>175</ele>
        <time>2021-06-15T10:24:51.000Z</time>
      </trkpt>
      <trkpt lat="43.4917" lon="6.3288">
        <ele>171</ele>
        <time>2021-04-20T18:11:25.000Z</time>
      </trkpt>
      <trkpt lat="43.49085" lon="6.32869">
        <ele>172</ele>
        <time>2021-04-16T08:54:47.000Z</time>
      </trkpt>
      <trkpt lat="43.49029" lon="6.32879">
        <ele>176</ele>
        <time>2021-04-20T18:11:35.000Z</time>
      </trkpt>
      <trkpt lat="43.48973" lon="6.3289">
        <ele>178</ele>
        <time>2021-04-16T08:54:52.000Z</time>
      </trkpt>
      <trkpt lat="43.48919" lon="6.32895">
        <ele>173</ele>
        <time>2021-04-20T18:11:45.000Z</time>
      </trkpt>
      <trkpt lat="43.48867" lon="6.329">
        <ele>176</ele>
        <time>2021-04-16T08:54:57.000Z</time>
      </trkpt>
      <trkpt lat="43.48801" lon="6.32878">
        <ele>180</ele>
        <time>2021-04-20T18:11:55.000Z</time>
      </trkpt>
      <trkpt lat="43.48737" lon="6.32858">
        <ele>177</ele>
        <time>2021-04-16T08:55:02.000Z</time>
      </trkpt>
      <trkpt lat="43.48694" lon="6.32843">
        <ele>172</ele>
        <time>2021-04-16T08:55:07.000Z</time>
      </trkpt>
      <trkpt lat="43.48648" lon="6.32859">
        <ele>170</ele>
        <time>2021-04-16T08:55:12.000Z</time>
      </trkpt>
      <trkpt lat="43.48583" lon="6.32928">
        <ele>161</ele>
        <time>2021-04-16T08:55:17.000Z</time>
      </trkpt>
      <trkpt lat="43.48546" lon="6.32959">
        <ele>161</ele>
        <time>2021-04-20T18:12:20.000Z</time>
      </trkpt>
      <trkpt lat="43.48509" lon="6.32989">
        <ele>163</ele>
        <time>2021-04-16T08:55:22.000Z</time>
      </trkpt>
      <trkpt lat="43.48434" lon="6.33019">
        <ele>161</ele>
        <time>2021-04-16T08:55:27.000Z</time>
      </trkpt>
      <trkpt lat="43.48424" lon="6.3309">
        <ele>159</ele>
        <time>2021-04-16T08:55:32.000Z</time>
      </trkpt>
      <trkpt lat="43.48356" lon="6.33095">
        <ele>159</ele>
        <time>2021-04-20T18:12:40.000Z</time>
      </trkpt>
      <trkpt lat="43.48323" lon="6.33098">
        <ele>159</ele>
        <time>2021-04-20T18:12:45.000Z</time>
      </trkpt>
      <trkpt lat="43.48291" lon="6.331">
        <ele>156</ele>
        <time>2021-04-16T08:55:37.000Z</time>
      </trkpt>
      <trkpt lat="43.48247" lon="6.33101">
        <ele>151</ele>
        <time>2021-04-20T18:12:55.000Z</time>
      </trkpt>
      <trkpt lat="43.48205" lon="6.33102">
        <ele>149</ele>
        <time>2021-04-16T08:55:42.000Z</time>
      </trkpt>
      <trkpt lat="43.48177" lon="6.33062">
        <ele>149</ele>
        <time>2021-04-16T08:55:47.000Z</time>
      </trkpt>
      <trkpt lat="43.48151" lon="6.32975">
        <ele>148</ele>
        <time>2021-04-16T08:55:52.000Z</time>
      </trkpt>
      <trkpt lat="43.48142" lon="6.32915">
        <ele>147</ele>
        <time>2021-04-16T08:55:57.000Z</time>
      </trkpt>
      <trkpt lat="43.48143" lon="6.32845">
        <ele>146</ele>
        <time>2021-04-16T08:56:02.000Z</time>
      </trkpt>
    </trkseg>
  </trk>
</gpx>